sensor_id;sensor_type;location;lat;lon;timestamp;P1;durP1;ratioP1;P2;durP2;ratioP2
3875;SDS011;1953;51.222;6.624;2022-12-18T00:02:06;29.20;;;15.40;;
3875;SDS011;1953;51.222;6.624;2022-12-18T00:08:54;31.20;;;15.20;;
3875;SDS011;1953;51.222;6.624;2022-12-18T00:13:37;30.93;;;15.17;;
3875;SDS011;1953;51.222;6.624;2022-12-18T00:18:19;26.33;;;13.30;;
3875;SDS011;1953;51.222;6.624;2022-12-18T00:23:02;28.20;;;13.43;;
3875;SDS011;1953;51.222;6.624;2022-12-18T00:27:46;30.73;;;15.37;;
3875;SDS011;1953;51.222;6.624;2022-12-18T00:32:28;31.93;;;15.53;;
3875;SDS011;1953;51.222;6.624;2022-12-18T00:37:10;28.07;;;14.30;;
3875;SDS011;1953;51.222;6.624;2022-12-18T00:41:53;30.40;;;14.47;;
3875;SDS011;1953;51.222;6.624;2022-12-18T00:46:54;29.67;;;13.60;;
3875;SDS011;1953;51.222;6.624;2022-12-18T00:51:37;24.57;;;12.93;;
3875;SDS011;1953;51.222;6.624;2022-12-18T00:56:19;26.73;;;13.80;;
3875;SDS011;1953;51.222;6.624;2022-12-18T01:01:03;28.17;;;13.97;;
3875;SDS011;1953;51.222;6.624;2022-12-18T01:05:47;34.43;;;14.33;;
3875;SDS011;1953;51.222;6.624;2022-12-18T01:10:29;31.83;;;14.93;;
3875;SDS011;1953;51.222;6.624;2022-12-18T01:15:12;35.57;;;14.80;;
3875;SDS011;1953;51.222;6.624;2022-12-18T01:19:55;32.37;;;14.70;;
3875;SDS011;1953;51.222;6.624;2022-12-18T01:24:39;30.13;;;14.37;;
3875;SDS011;1953;51.222;6.624;2022-12-18T01:29:21;30.20;;;14.00;;
3875;SDS011;1953;51.222;6.624;2022-12-18T01:34:04;27.80;;;14.60;;
3875;SDS011;1953;51.222;6.624;2022-12-18T01:38:47;26.27;;;14.47;;
3875;SDS011;1953;51.222;6.624;2022-12-18T01:43:44;31.20;;;15.00;;
3875;SDS011;1953;51.222;6.624;2022-12-18T01:48:32;29.63;;;15.07;;
3875;SDS011;1953;51.222;6.624;2022-12-18T01:53:15;36.53;;;15.97;;
3875;SDS011;1953;51.222;6.624;2022-12-18T01:58:00;34.13;;;15.10;;
3875;SDS011;1953;51.222;6.624;2022-12-18T02:02:45;34.63;;;16.37;;
3875;SDS011;1953;51.222;6.624;2022-12-18T02:07:30;29.13;;;13.83;;
3875;SDS011;1953;51.222;6.624;2022-12-18T02:12:20;35.80;;;15.77;;
3875;SDS011;1953;51.222;6.624;2022-12-18T02:17:05;29.07;;;15.03;;
3875;SDS011;1953;51.222;6.624;2022-12-18T02:21:56;31.10;;;15.10;;
3875;SDS011;1953;51.222;6.624;2022-12-18T02:26:48;29.30;;;14.27;;
3875;SDS011;1953;51.222;6.624;2022-12-18T02:31:35;27.37;;;14.23;;
3875;SDS011;1953;51.222;6.624;2022-12-18T02:36:22;29.87;;;15.90;;
3875;SDS011;1953;51.222;6.624;2022-12-18T02:41:05;31.60;;;16.10;;
3875;SDS011;1953;51.222;6.624;2022-12-18T02:45:52;33.93;;;15.43;;
3875;SDS011;1953;51.222;6.624;2022-12-18T02:50:37;35.73;;;16.00;;
3875;SDS011;1953;51.222;6.624;2022-12-18T02:55:28;31.03;;;15.87;;
3875;SDS011;1953;51.222;6.624;2022-12-18T03:00:24;34.97;;;15.27;;
3875;SDS011;1953;51.222;6.624;2022-12-18T03:05:16;36.33;;;15.57;;
3875;SDS011;1953;51.222;6.624;2022-12-18T03:10:01;31.80;;;15.67;;
3875;SDS011;1953;51.222;6.624;2022-12-18T03:14:44;29.80;;;15.47;;
3875;SDS011;1953;51.222;6.624;2022-12-18T03:19:29;29.13;;;14.30;;
3875;SDS011;1953;51.222;6.624;2022-12-18T03:24:16;34.10;;;15.17;;
3875;SDS011;1953;51.222;6.624;2022-12-18T03:29:00;32.17;;;14.97;;
3875;SDS011;1953;51.222;6.624;2022-12-18T03:33:45;34.47;;;15.73;;
3875;SDS011;1953;51.222;6.624;2022-12-18T03:38:32;30.50;;;15.43;;
3875;SDS011;1953;51.222;6.624;2022-12-18T03:43:18;31.33;;;14.47;;
3875;SDS011;1953;51.222;6.624;2022-12-18T03:48:08;32.43;;;15.20;;
3875;SDS011;1953;51.222;6.624;2022-12-18T03:52:58;36.07;;;15.60;;
3875;SDS011;1953;51.222;6.624;2022-12-18T03:57:48;28.60;;;14.87;;
3875;SDS011;1953;51.222;6.624;2022-12-18T04:02:33;28.27;;;14.60;;
3875;SDS011;1953;51.222;6.624;2022-12-18T04:07:18;26.90;;;12.97;;
3875;SDS011;1953;51.222;6.624;2022-12-18T04:12:01;27.93;;;13.27;;
3875;SDS011;1953;51.222;6.624;2022-12-18T04:16:44;27.23;;;12.73;;
3875;SDS011;1953;51.222;6.624;2022-12-18T04:21:28;31.30;;;14.40;;
3875;SDS011;1953;51.222;6.624;2022-12-18T04:26:10;27.20;;;12.40;;
3875;SDS011;1953;51.222;6.624;2022-12-18T04:30:53;29.93;;;13.20;;
3875;SDS011;1953;51.222;6.624;2022-12-18T04:35:35;24.37;;;13.07;;
3875;SDS011;1953;51.222;6.624;2022-12-18T04:40:19;24.20;;;13.00;;
3875;SDS011;1953;51.222;6.624;2022-12-18T04:45:02;27.10;;;12.80;;
3875;SDS011;1953;51.222;6.624;2022-12-18T04:49:44;26.73;;;13.20;;
3875;SDS011;1953;51.222;6.624;2022-12-18T04:54:27;25.30;;;12.87;;
3875;SDS011;1953;51.222;6.624;2022-12-18T04:59:11;26.83;;;12.03;;
3875;SDS011;1953;51.222;6.624;2022-12-18T05:03:53;24.23;;;12.87;;
3875;SDS011;1953;51.222;6.624;2022-12-18T05:08:36;26.60;;;13.20;;
3875;SDS011;1953;51.222;6.624;2022-12-18T05:13:18;19.90;;;11.40;;
3875;SDS011;1953;51.222;6.624;2022-12-18T05:18:02;26.57;;;12.70;;
3875;SDS011;1953;51.222;6.624;2022-12-18T05:22:45;26.13;;;12.20;;
3875;SDS011;1953;51.222;6.624;2022-12-18T05:27:28;23.17;;;11.73;;
3875;SDS011;1953;51.222;6.624;2022-12-18T05:32:10;26.93;;;12.33;;
3875;SDS011;1953;51.222;6.624;2022-12-18T05:36:54;24.40;;;11.93;;
3875;SDS011;1953;51.222;6.624;2022-12-18T05:41:36;21.70;;;11.17;;
3875;SDS011;1953;51.222;6.624;2022-12-18T05:46:19;24.23;;;12.57;;
3875;SDS011;1953;51.222;6.624;2022-12-18T05:51:05;22.37;;;11.03;;
3875;SDS011;1953;51.222;6.624;2022-12-18T05:55:50;21.57;;;12.10;;
3875;SDS011;1953;51.222;6.624;2022-12-18T06:00:32;22.63;;;12.10;;
3875;SDS011;1953;51.222;6.624;2022-12-18T06:05:16;26.00;;;13.73;;
3875;SDS011;1953;51.222;6.624;2022-12-18T06:09:58;23.83;;;12.30;;
3875;SDS011;1953;51.222;6.624;2022-12-18T06:14:42;23.40;;;11.67;;
3875;SDS011;1953;51.222;6.624;2022-12-18T06:19:25;26.00;;;12.53;;
3875;SDS011;1953;51.222;6.624;2022-12-18T06:24:07;26.77;;;12.80;;
3875;SDS011;1953;51.222;6.624;2022-12-18T06:28:50;23.60;;;12.30;;
3875;SDS011;1953;51.222;6.624;2022-12-18T06:33:34;26.17;;;12.87;;
3875;SDS011;1953;51.222;6.624;2022-12-18T06:38:17;407.50;;;32.03;;
3875;SDS011;1953;51.222;6.624;2022-12-18T06:42:59;27.80;;;13.83;;
3875;SDS011;1953;51.222;6.624;2022-12-18T06:47:42;23.77;;;12.83;;
3875;SDS011;1953;51.222;6.624;2022-12-18T06:52:26;25.93;;;13.10;;
3875;SDS011;1953;51.222;6.624;2022-12-18T06:57:08;24.97;;;13.03;;
3875;SDS011;1953;51.222;6.624;2022-12-18T07:01:51;22.73;;;12.23;;
3875;SDS011;1953;51.222;6.624;2022-12-18T07:06:33;27.97;;;13.27;;
3875;SDS011;1953;51.222;6.624;2022-12-18T07:11:17;21.50;;;12.10;;
3875;SDS011;1953;51.222;6.624;2022-12-18T07:16:04;21.27;;;11.63;;
3875;SDS011;1953;51.222;6.624;2022-12-18T07:20:48;25.07;;;12.77;;
3875;SDS011;1953;51.222;6.624;2022-12-18T07:25:30;30.40;;;13.00;;
3875;SDS011;1953;51.222;6.624;2022-12-18T07:30:16;25.70;;;12.17;;
3875;SDS011;1953;51.222;6.624;2022-12-18T07:34:59;23.43;;;13.13;;
3875;SDS011;1953;51.222;6.624;2022-12-18T07:39:41;23.80;;;11.17;;
3875;SDS011;1953;51.222;6.624;2022-12-18T07:44:23;26.20;;;12.10;;
3875;SDS011;1953;51.222;6.624;2022-12-18T07:49:07;21.97;;;13.27;;
3875;SDS011;1953;51.222;6.624;2022-12-18T07:53:50;25.93;;;12.07;;
3875;SDS011;1953;51.222;6.624;2022-12-18T07:58:32;22.60;;;12.50;;
3875;SDS011;1953;51.222;6.624;2022-12-18T08:03:16;22.17;;;12.13;;
3875;SDS011;1953;51.222;6.624;2022-12-18T08:08:00;27.67;;;13.80;;
3875;SDS011;1953;51.222;6.624;2022-12-18T08:12:42;25.87;;;12.73;;
3875;SDS011;1953;51.222;6.624;2022-12-18T08:17:24;22.60;;;12.27;;
3875;SDS011;1953;51.222;6.624;2022-12-18T08:22:07;39.70;;;18.60;;
3875;SDS011;1953;51.222;6.624;2022-12-18T08:26:51;27.00;;;13.80;;
3875;SDS011;1953;51.222;6.624;2022-12-18T08:31:33;28.07;;;14.00;;
3875;SDS011;1953;51.222;6.624;2022-12-18T08:36:16;27.37;;;13.70;;
3875;SDS011;1953;51.222;6.624;2022-12-18T08:40:58;26.57;;;14.17;;
3875;SDS011;1953;51.222;6.624;2022-12-18T08:45:43;26.30;;;12.80;;
3875;SDS011;1953;51.222;6.624;2022-12-18T08:50:25;30.00;;;15.13;;
3875;SDS011;1953;51.222;6.624;2022-12-18T08:55:08;25.80;;;12.83;;
3875;SDS011;1953;51.222;6.624;2022-12-18T08:59:51;30.87;;;13.90;;
3875;SDS011;1953;51.222;6.624;2022-12-18T09:04:34;30.10;;;14.13;;
3875;SDS011;1953;51.222;6.624;2022-12-18T09:09:17;27.47;;;14.50;;
3875;SDS011;1953;51.222;6.624;2022-12-18T09:13:59;29.30;;;13.30;;
3875;SDS011;1953;51.222;6.624;2022-12-18T09:18:42;23.63;;;12.87;;
3875;SDS011;1953;51.222;6.624;2022-12-18T09:23:28;25.77;;;12.93;;
3875;SDS011;1953;51.222;6.624;2022-12-18T09:28:11;27.77;;;13.33;;
3875;SDS011;1953;51.222;6.624;2022-12-18T09:32:55;26.27;;;14.13;;
3875;SDS011;1953;51.222;6.624;2022-12-18T09:37:37;29.60;;;13.70;;
3875;SDS011;1953;51.222;6.624;2022-12-18T09:42:21;26.37;;;12.73;;
3875;SDS011;1953;51.222;6.624;2022-12-18T09:47:05;34.13;;;14.50;;
3875;SDS011;1953;51.222;6.624;2022-12-18T09:51:53;25.13;;;12.67;;
3875;SDS011;1953;51.222;6.624;2022-12-18T09:56:40;28.67;;;14.40;;
3875;SDS011;1953;51.222;6.624;2022-12-18T10:01:26;28.60;;;14.13;;
3875;SDS011;1953;51.222;6.624;2022-12-18T10:06:12;33.13;;;14.57;;
3875;SDS011;1953;51.222;6.624;2022-12-18T10:11:01;28.10;;;14.60;;
3875;SDS011;1953;51.222;6.624;2022-12-18T10:16:08;29.57;;;15.13;;
3875;SDS011;1953;51.222;6.624;2022-12-18T10:20:56;26.87;;;14.73;;
3875;SDS011;1953;51.222;6.624;2022-12-18T10:25:48;27.03;;;14.40;;
3875;SDS011;1953;51.222;6.624;2022-12-18T10:30:35;30.80;;;14.73;;
3875;SDS011;1953;51.222;6.624;2022-12-18T10:35:20;29.20;;;15.57;;
3875;SDS011;1953;51.222;6.624;2022-12-18T10:40:08;29.83;;;15.03;;
3875;SDS011;1953;51.222;6.624;2022-12-18T10:44:55;26.93;;;13.87;;
3875;SDS011;1953;51.222;6.624;2022-12-18T10:49:47;33.57;;;15.83;;
3875;SDS011;1953;51.222;6.624;2022-12-18T10:54:32;27.17;;;15.00;;
3875;SDS011;1953;51.222;6.624;2022-12-18T10:59:17;27.30;;;15.57;;
3875;SDS011;1953;51.222;6.624;2022-12-18T11:04:00;32.60;;;15.13;;
3875;SDS011;1953;51.222;6.624;2022-12-18T11:08:56;32.00;;;15.23;;
3875;SDS011;1953;51.222;6.624;2022-12-18T11:13:40;28.70;;;14.50;;
3875;SDS011;1953;51.222;6.624;2022-12-18T11:18:31;30.80;;;16.13;;
3875;SDS011;1953;51.222;6.624;2022-12-18T11:23:15;27.77;;;15.47;;
3875;SDS011;1953;51.222;6.624;2022-12-18T11:27:59;32.20;;;15.70;;
3875;SDS011;1953;51.222;6.624;2022-12-18T11:32:43;28.83;;;15.73;;
3875;SDS011;1953;51.222;6.624;2022-12-18T11:37:28;29.40;;;16.13;;
3875;SDS011;1953;51.222;6.624;2022-12-18T11:42:12;31.00;;;16.10;;
3875;SDS011;1953;51.222;6.624;2022-12-18T11:47:03;30.23;;;16.57;;
3875;SDS011;1953;51.222;6.624;2022-12-18T11:51:53;30.47;;;15.60;;
3875;SDS011;1953;51.222;6.624;2022-12-18T11:56:43;29.77;;;15.97;;
3875;SDS011;1953;51.222;6.624;2022-12-18T12:01:33;32.63;;;16.37;;
3875;SDS011;1953;51.222;6.624;2022-12-18T12:09:56;30.67;;;15.63;;
3875;SDS011;1953;51.222;6.624;2022-12-18T12:14:49;34.47;;;17.43;;
3875;SDS011;1953;51.222;6.624;2022-12-18T12:19:40;34.47;;;17.10;;
3875;SDS011;1953;51.222;6.624;2022-12-18T12:24:30;33.17;;;17.30;;
3875;SDS011;1953;51.222;6.624;2022-12-18T12:29:29;38.50;;;18.57;;
3875;SDS011;1953;51.222;6.624;2022-12-18T12:34:21;30.43;;;17.37;;
3875;SDS011;1953;51.222;6.624;2022-12-18T12:39:08;34.67;;;17.20;;
3875;SDS011;1953;51.222;6.624;2022-12-18T12:43:54;32.87;;;18.33;;
3875;SDS011;1953;51.222;6.624;2022-12-18T12:48:41;35.10;;;17.93;;
3875;SDS011;1953;51.222;6.624;2022-12-18T12:53:29;34.20;;;18.20;;
3875;SDS011;1953;51.222;6.624;2022-12-18T12:58:17;36.23;;;18.90;;
3875;SDS011;1953;51.222;6.624;2022-12-18T13:03:11;36.10;;;18.13;;
3875;SDS011;1953;51.222;6.624;2022-12-18T13:08:03;38.83;;;17.47;;
3875;SDS011;1953;51.222;6.624;2022-12-18T13:12:51;35.27;;;18.83;;
3875;SDS011;1953;51.222;6.624;2022-12-18T13:17:37;36.07;;;18.53;;
3875;SDS011;1953;51.222;6.624;2022-12-18T13:22:20;39.50;;;19.47;;
3875;SDS011;1953;51.222;6.624;2022-12-18T13:27:13;38.30;;;19.00;;
3875;SDS011;1953;51.222;6.624;2022-12-18T13:32:38;35.67;;;19.27;;
3875;SDS011;1953;51.222;6.624;2022-12-18T13:42:38;40.20;;;18.80;;
3875;SDS011;1953;51.222;6.624;2022-12-18T13:47:39;38.03;;;21.40;;
3875;SDS011;1953;51.222;6.624;2022-12-18T13:52:26;37.10;;;18.80;;
3875;SDS011;1953;51.222;6.624;2022-12-18T13:57:24;41.43;;;18.90;;
3875;SDS011;1953;51.222;6.624;2022-12-18T14:02:12;40.50;;;20.57;;
3875;SDS011;1953;51.222;6.624;2022-12-18T14:06:57;38.97;;;19.50;;
3875;SDS011;1953;51.222;6.624;2022-12-18T14:11:47;39.73;;;19.60;;
3875;SDS011;1953;51.222;6.624;2022-12-18T14:16:31;38.07;;;20.17;;
3875;SDS011;1953;51.222;6.624;2022-12-18T14:21:19;36.13;;;20.40;;
3875;SDS011;1953;51.222;6.624;2022-12-18T14:26:19;42.73;;;19.67;;
3875;SDS011;1953;51.222;6.624;2022-12-18T14:31:03;43.37;;;19.60;;
3875;SDS011;1953;51.222;6.624;2022-12-18T14:35:52;38.63;;;20.07;;
3875;SDS011;1953;51.222;6.624;2022-12-18T14:40:37;43.37;;;20.03;;
3875;SDS011;1953;51.222;6.624;2022-12-18T14:45:33;43.60;;;22.03;;
3875;SDS011;1953;51.222;6.624;2022-12-18T14:50:18;42.97;;;20.80;;
3875;SDS011;1953;51.222;6.624;2022-12-18T14:55:01;40.27;;;21.67;;
3875;SDS011;1953;51.222;6.624;2022-12-18T14:59:44;42.63;;;21.97;;
3875;SDS011;1953;51.222;6.624;2022-12-18T15:04:28;39.07;;;20.40;;
3875;SDS011;1953;51.222;6.624;2022-12-18T15:09:21;42.30;;;23.13;;
3875;SDS011;1953;51.222;6.624;2022-12-18T15:14:24;48.40;;;23.70;;
3875;SDS011;1953;51.222;6.624;2022-12-18T15:19:15;42.20;;;21.83;;
3875;SDS011;1953;51.222;6.624;2022-12-18T15:23:58;48.13;;;22.63;;
3875;SDS011;1953;51.222;6.624;2022-12-18T15:28:43;41.60;;;20.50;;
3875;SDS011;1953;51.222;6.624;2022-12-18T15:33:29;43.47;;;21.20;;
3875;SDS011;1953;51.222;6.624;2022-12-18T15:38:15;45.50;;;21.93;;
3875;SDS011;1953;51.222;6.624;2022-12-18T15:42:57;42.53;;;21.23;;
3875;SDS011;1953;51.222;6.624;2022-12-18T15:47:57;44.20;;;21.40;;
3875;SDS011;1953;51.222;6.624;2022-12-18T15:52:40;43.53;;;22.47;;
3875;SDS011;1953;51.222;6.624;2022-12-18T15:57:25;43.53;;;21.37;;
3875;SDS011;1953;51.222;6.624;2022-12-18T16:02:08;45.90;;;22.67;;
3875;SDS011;1953;51.222;6.624;2022-12-18T16:06:59;41.47;;;21.90;;
3875;SDS011;1953;51.222;6.624;2022-12-18T16:11:42;49.70;;;24.10;;
3875;SDS011;1953;51.222;6.624;2022-12-18T16:16:28;44.60;;;23.90;;
3875;SDS011;1953;51.222;6.624;2022-12-18T16:21:10;44.23;;;22.93;;
3875;SDS011;1953;51.222;6.624;2022-12-18T16:25:53;46.63;;;22.67;;
3875;SDS011;1953;51.222;6.624;2022-12-18T16:30:35;52.80;;;26.07;;
3875;SDS011;1953;51.222;6.624;2022-12-18T16:35:20;51.20;;;24.93;;
3875;SDS011;1953;51.222;6.624;2022-12-18T16:40:05;42.47;;;22.60;;
3875;SDS011;1953;51.222;6.624;2022-12-18T16:44:49;45.40;;;21.00;;
3875;SDS011;1953;51.222;6.624;2022-12-18T16:49:31;47.83;;;24.57;;
3875;SDS011;1953;51.222;6.624;2022-12-18T16:54:15;48.43;;;24.50;;
3875;SDS011;1953;51.222;6.624;2022-12-18T16:58:58;49.77;;;25.83;;
3875;SDS011;1953;51.222;6.624;2022-12-18T17:03:42;52.57;;;24.80;;
3875;SDS011;1953;51.222;6.624;2022-12-18T17:08:24;48.80;;;25.87;;
3875;SDS011;1953;51.222;6.624;2022-12-18T17:13:08;48.53;;;23.97;;
3875;SDS011;1953;51.222;6.624;2022-12-18T17:17:50;43.13;;;22.30;;
3875;SDS011;1953;51.222;6.624;2022-12-18T17:22:33;51.43;;;24.57;;
3875;SDS011;1953;51.222;6.624;2022-12-18T17:27:15;51.40;;;24.53;;
3875;SDS011;1953;51.222;6.624;2022-12-18T17:31:59;51.23;;;25.07;;
3875;SDS011;1953;51.222;6.624;2022-12-18T17:36:41;47.80;;;23.60;;
3875;SDS011;1953;51.222;6.624;2022-12-18T17:41:24;54.40;;;25.40;;
3875;SDS011;1953;51.222;6.624;2022-12-18T17:46:07;55.73;;;24.50;;
3875;SDS011;1953;51.222;6.624;2022-12-18T17:50:51;51.40;;;25.40;;
3875;SDS011;1953;51.222;6.624;2022-12-18T17:55:33;48.73;;;24.40;;
3875;SDS011;1953;51.222;6.624;2022-12-18T18:00:16;52.83;;;25.97;;
3875;SDS011;1953;51.222;6.624;2022-12-18T18:04:59;58.70;;;27.23;;
3875;SDS011;1953;51.222;6.624;2022-12-18T18:09:43;52.00;;;25.27;;
3875;SDS011;1953;51.222;6.624;2022-12-18T18:14:25;50.97;;;25.30;;
3875;SDS011;1953;51.222;6.624;2022-12-18T18:19:08;47.47;;;21.20;;
3875;SDS011;1953;51.222;6.624;2022-12-18T18:23:52;57.10;;;26.23;;
3875;SDS011;1953;51.222;6.624;2022-12-18T18:28:36;51.60;;;24.70;;
3875;SDS011;1953;51.222;6.624;2022-12-18T18:33:19;56.57;;;25.97;;
3875;SDS011;1953;51.222;6.624;2022-12-18T18:38:01;54.77;;;26.67;;
3875;SDS011;1953;51.222;6.624;2022-12-18T18:42:44;53.47;;;26.27;;
3875;SDS011;1953;51.222;6.624;2022-12-18T18:47:29;56.03;;;26.70;;
3875;SDS011;1953;51.222;6.624;2022-12-18T18:52:11;54.40;;;25.87;;
3875;SDS011;1953;51.222;6.624;2022-12-18T18:56:53;58.27;;;26.40;;
3875;SDS011;1953;51.222;6.624;2022-12-18T19:01:36;53.50;;;25.63;;
3875;SDS011;1953;51.222;6.624;2022-12-18T19:06:20;54.97;;;26.50;;
3875;SDS011;1953;51.222;6.624;2022-12-18T19:11:05;60.77;;;28.60;;
3875;SDS011;1953;51.222;6.624;2022-12-18T19:16:09;54.67;;;26.87;;
3875;SDS011;1953;51.222;6.624;2022-12-18T19:20:55;65.63;;;27.03;;
3875;SDS011;1953;51.222;6.624;2022-12-18T19:25:40;58.87;;;27.37;;
3875;SDS011;1953;51.222;6.624;2022-12-18T19:30:22;61.10;;;28.23;;
3875;SDS011;1953;51.222;6.624;2022-12-18T19:35:05;52.50;;;25.43;;
3875;SDS011;1953;51.222;6.624;2022-12-18T19:39:47;60.10;;;28.33;;
3875;SDS011;1953;51.222;6.624;2022-12-18T19:44:31;58.63;;;28.57;;
3875;SDS011;1953;51.222;6.624;2022-12-18T19:49:14;59.57;;;28.23;;
3875;SDS011;1953;51.222;6.624;2022-12-18T19:53:57;59.37;;;27.57;;
3875;SDS011;1953;51.222;6.624;2022-12-18T19:58:40;61.60;;;27.50;;
3875;SDS011;1953;51.222;6.624;2022-12-18T20:03:23;61.00;;;28.07;;
3875;SDS011;1953;51.222;6.624;2022-12-18T20:08:06;57.27;;;26.63;;
3875;SDS011;1953;51.222;6.624;2022-12-18T20:12:48;60.43;;;28.17;;
3875;SDS011;1953;51.222;6.624;2022-12-18T20:17:31;59.37;;;27.40;;
3875;SDS011;1953;51.222;6.624;2022-12-18T20:22:14;59.30;;;25.80;;
3875;SDS011;1953;51.222;6.624;2022-12-18T20:26:57;65.97;;;27.77;;
3875;SDS011;1953;51.222;6.624;2022-12-18T20:31:39;62.67;;;28.10;;
3875;SDS011;1953;51.222;6.624;2022-12-18T20:36:22;60.13;;;26.90;;
3875;SDS011;1953;51.222;6.624;2022-12-18T20:41:07;55.93;;;26.30;;
3875;SDS011;1953;51.222;6.624;2022-12-18T20:45:58;58.93;;;26.20;;
3875;SDS011;1953;51.222;6.624;2022-12-18T20:50:41;58.53;;;27.37;;
3875;SDS011;1953;51.222;6.624;2022-12-18T20:55:24;66.83;;;27.57;;
3875;SDS011;1953;51.222;6.624;2022-12-18T21:00:08;62.57;;;26.97;;
3875;SDS011;1953;51.222;6.624;2022-12-18T21:04:52;58.63;;;28.47;;
3875;SDS011;1953;51.222;6.624;2022-12-18T21:09:34;57.20;;;26.40;;
3875;SDS011;1953;51.222;6.624;2022-12-18T21:14:17;52.47;;;24.17;;
3875;SDS011;1953;51.222;6.624;2022-12-18T21:19:02;58.47;;;25.13;;
3875;SDS011;1953;51.222;6.624;2022-12-18T21:23:45;70.60;;;26.40;;
3875;SDS011;1953;51.222;6.624;2022-12-18T21:28:27;60.27;;;26.33;;
3875;SDS011;1953;51.222;6.624;2022-12-18T21:33:10;65.93;;;29.23;;
3875;SDS011;1953;51.222;6.624;2022-12-18T21:37:54;68.63;;;28.40;;
3875;SDS011;1953;51.222;6.624;2022-12-18T21:42:36;60.33;;;27.10;;
3875;SDS011;1953;51.222;6.624;2022-12-18T21:47:36;59.40;;;26.50;;
3875;SDS011;1953;51.222;6.624;2022-12-18T21:52:19;63.37;;;28.43;;
3875;SDS011;1953;51.222;6.624;2022-12-18T21:57:04;59.83;;;26.47;;
3875;SDS011;1953;51.222;6.624;2022-12-18T22:01:48;60.13;;;26.67;;
3875;SDS011;1953;51.222;6.624;2022-12-18T22:06:31;62.63;;;28.27;;
3875;SDS011;1953;51.222;6.624;2022-12-18T22:11:14;57.30;;;26.80;;
3875;SDS011;1953;51.222;6.624;2022-12-18T22:15:58;68.57;;;28.47;;
3875;SDS011;1953;51.222;6.624;2022-12-18T22:20:40;62.93;;;28.17;;
3875;SDS011;1953;51.222;6.624;2022-12-18T22:25:22;59.83;;;26.90;;
3875;SDS011;1953;51.222;6.624;2022-12-18T22:30:05;60.70;;;28.20;;
3875;SDS011;1953;51.222;6.624;2022-12-18T22:34:50;58.63;;;26.73;;
3875;SDS011;1953;51.222;6.624;2022-12-18T22:39:32;62.50;;;27.90;;
3875;SDS011;1953;51.222;6.624;2022-12-18T22:44:15;60.00;;;29.30;;
3875;SDS011;1953;51.222;6.624;2022-12-18T22:48:57;64.20;;;28.53;;
3875;SDS011;1953;51.222;6.624;2022-12-18T22:53:41;62.97;;;28.33;;
3875;SDS011;1953;51.222;6.624;2022-12-18T22:58:24;74.67;;;28.50;;
3875;SDS011;1953;51.222;6.624;2022-12-18T23:03:06;74.57;;;28.73;;
3875;SDS011;1953;51.222;6.624;2022-12-18T23:07:49;64.40;;;30.50;;
3875;SDS011;1953;51.222;6.624;2022-12-18T23:12:33;62.13;;;29.27;;
3875;SDS011;1953;51.222;6.624;2022-12-18T23:17:17;68.23;;;29.00;;
3875;SDS011;1953;51.222;6.624;2022-12-18T23:21:59;65.00;;;28.87;;
3875;SDS011;1953;51.222;6.624;2022-12-18T23:26:41;71.47;;;30.03;;
3875;SDS011;1953;51.222;6.624;2022-12-18T23:31:26;65.10;;;28.33;;
3875;SDS011;1953;51.222;6.624;2022-12-18T23:36:09;65.70;;;29.67;;
3875;SDS011;1953;51.222;6.624;2022-12-18T23:40:52;63.60;;;29.37;;
3875;SDS011;1953;51.222;6.624;2022-12-18T23:45:36;73.67;;;31.23;;
3875;SDS011;1953;51.222;6.624;2022-12-18T23:50:20;66.43;;;30.50;;
3875;SDS011;1953;51.222;6.624;2022-12-18T23:55:02;75.03;;;31.47;;
3875;SDS011;1953;51.222;6.624;2022-12-18T23:59:45;73.23;;;31.40;;
